sensor_id;sensor_type;location;lat;lon;timestamp;P1;durP1;ratioP1;P2;durP2;ratioP2
47021;SDS011;32779;52.264;6.154;2022-12-10T00:01:19;76.57;;;34.92;;
47021;SDS011;32779;52.264;6.154;2022-12-10T00:03:45;70.28;;;34.22;;
47021;SDS011;32779;52.264;6.154;2022-12-10T00:08:56;74.55;;;35.85;;
47021;SDS011;32779;52.264;6.154;2022-12-10T00:11:23;76.38;;;34.72;;
47021;SDS011;32779;52.264;6.154;2022-12-10T00:13:49;68.30;;;35.60;;
47021;SDS011;32779;52.264;6.154;2022-12-10T00:16:16;74.35;;;36.65;;
47021;SDS011;32779;52.264;6.154;2022-12-10T00:18:44;74.32;;;35.05;;
47021;SDS011;32779;52.264;6.154;2022-12-10T00:21:17;75.63;;;35.55;;
47021;SDS011;32779;52.264;6.154;2022-12-10T00:23:49;75.10;;;36.72;;
47021;SDS011;32779;52.264;6.154;2022-12-10T00:26:16;74.82;;;36.33;;
47021;SDS011;32779;52.264;6.154;2022-12-10T00:28:53;74.88;;;36.40;;
47021;SDS011;32779;52.264;6.154;2022-12-10T00:31:21;82.50;;;37.47;;
47021;SDS011;32779;52.264;6.154;2022-12-10T00:33:49;87.05;;;37.80;;
47021;SDS011;32779;52.264;6.154;2022-12-10T00:36:16;77.40;;;35.50;;
47021;SDS011;32779;52.264;6.154;2022-12-10T00:38:47;70.90;;;33.08;;
47021;SDS011;32779;52.264;6.154;2022-12-10T00:41:13;72.97;;;34.85;;
47021;SDS011;32779;52.264;6.154;2022-12-10T00:43:40;77.43;;;37.53;;
47021;SDS011;32779;52.264;6.154;2022-12-10T00:48:32;70.88;;;34.90;;
47021;SDS011;32779;52.264;6.154;2022-12-10T00:50:59;89.75;;;37.17;;
47021;SDS011;32779;52.264;6.154;2022-12-10T00:53:27;75.90;;;37.67;;
47021;SDS011;32779;52.264;6.154;2022-12-10T00:55:54;76.45;;;36.03;;
47021;SDS011;32779;52.264;6.154;2022-12-10T00:58:20;73.50;;;35.03;;
47021;SDS011;32779;52.264;6.154;2022-12-10T01:03:12;74.25;;;34.38;;
47021;SDS011;32779;52.264;6.154;2022-12-10T01:05:38;75.22;;;35.45;;
47021;SDS011;32779;52.264;6.154;2022-12-10T01:08:04;85.15;;;37.78;;
47021;SDS011;32779;52.264;6.154;2022-12-10T01:10:30;75.60;;;35.95;;
47021;SDS011;32779;52.264;6.154;2022-12-10T01:12:56;83.13;;;37.28;;
47021;SDS011;32779;52.264;6.154;2022-12-10T01:15:21;79.68;;;36.25;;
47021;SDS011;32779;52.264;6.154;2022-12-10T01:17:47;74.72;;;36.58;;
47021;SDS011;32779;52.264;6.154;2022-12-10T01:20:12;82.53;;;37.28;;
47021;SDS011;32779;52.264;6.154;2022-12-10T01:22:38;68.45;;;34.92;;
47021;SDS011;32779;52.264;6.154;2022-12-10T01:25:04;74.15;;;35.88;;
47021;SDS011;32779;52.264;6.154;2022-12-10T01:27:30;78.90;;;35.08;;
47021;SDS011;32779;52.264;6.154;2022-12-10T01:29:55;73.72;;;36.10;;
47021;SDS011;32779;52.264;6.154;2022-12-10T01:32:21;78.15;;;35.92;;
47021;SDS011;32779;52.264;6.154;2022-12-10T01:34:47;76.00;;;36.38;;
47021;SDS011;32779;52.264;6.154;2022-12-10T01:37:13;74.82;;;36.13;;
47021;SDS011;32779;52.264;6.154;2022-12-10T01:39:38;78.82;;;36.42;;
47021;SDS011;32779;52.264;6.154;2022-12-10T01:42:04;75.38;;;35.83;;
47021;SDS011;32779;52.264;6.154;2022-12-10T01:46:56;77.10;;;36.00;;
47021;SDS011;32779;52.264;6.154;2022-12-10T01:49:25;82.70;;;36.08;;
47021;SDS011;32779;52.264;6.154;2022-12-10T01:51:52;77.22;;;35.95;;
47021;SDS011;32779;52.264;6.154;2022-12-10T01:54:24;76.75;;;35.83;;
47021;SDS011;32779;52.264;6.154;2022-12-10T01:57:02;81.00;;;37.42;;
47021;SDS011;32779;52.264;6.154;2022-12-10T01:59:31;82.97;;;36.60;;
47021;SDS011;32779;52.264;6.154;2022-12-10T02:02:16;82.80;;;37.47;;
47021;SDS011;32779;52.264;6.154;2022-12-10T02:15:33;76.78;;;37.42;;
47021;SDS011;32779;52.264;6.154;2022-12-10T02:23:03;89.78;;;38.67;;
47021;SDS011;32779;52.264;6.154;2022-12-10T02:25:36;89.82;;;37.33;;
47021;SDS011;32779;52.264;6.154;2022-12-10T02:28:13;82.30;;;37.40;;
47021;SDS011;32779;52.264;6.154;2022-12-10T02:30:42;80.68;;;37.08;;
47021;SDS011;32779;52.264;6.154;2022-12-10T02:33:08;88.28;;;39.28;;
47021;SDS011;32779;52.264;6.154;2022-12-10T02:35:36;77.78;;;37.42;;
47021;SDS011;32779;52.264;6.154;2022-12-10T02:38:07;78.80;;;37.28;;
47021;SDS011;32779;52.264;6.154;2022-12-10T02:40:41;84.35;;;37.40;;
47021;SDS011;32779;52.264;6.154;2022-12-10T02:43:11;78.65;;;38.15;;
47021;SDS011;32779;52.264;6.154;2022-12-10T02:45:39;87.72;;;37.95;;
47021;SDS011;32779;52.264;6.154;2022-12-10T02:48:06;77.60;;;37.72;;
47021;SDS011;32779;52.264;6.154;2022-12-10T02:50:32;84.40;;;37.72;;
47021;SDS011;32779;52.264;6.154;2022-12-10T02:52:59;80.35;;;36.67;;
47021;SDS011;32779;52.264;6.154;2022-12-10T02:55:24;87.00;;;40.35;;
47021;SDS011;32779;52.264;6.154;2022-12-10T03:00:25;80.63;;;38.90;;
47021;SDS011;32779;52.264;6.154;2022-12-10T03:05:24;79.25;;;37.42;;
47021;SDS011;32779;52.264;6.154;2022-12-10T03:08:25;81.53;;;37.95;;
47021;SDS011;32779;52.264;6.154;2022-12-10T03:16:22;77.20;;;37.63;;
47021;SDS011;32779;52.264;6.154;2022-12-10T03:18:50;82.45;;;37.22;;
47021;SDS011;32779;52.264;6.154;2022-12-10T03:21:20;85.05;;;38.92;;
47021;SDS011;32779;52.264;6.154;2022-12-10T03:23:47;82.03;;;38.47;;
47021;SDS011;32779;52.264;6.154;2022-12-10T03:26:14;86.40;;;39.13;;
47021;SDS011;32779;52.264;6.154;2022-12-10T03:28:43;85.65;;;37.95;;
47021;SDS011;32779;52.264;6.154;2022-12-10T03:31:13;85.07;;;37.60;;
47021;SDS011;32779;52.264;6.154;2022-12-10T03:33:40;77.07;;;36.92;;
47021;SDS011;32779;52.264;6.154;2022-12-10T03:36:06;83.55;;;38.75;;
47021;SDS011;32779;52.264;6.154;2022-12-10T03:38:33;80.80;;;39.05;;
47021;SDS011;32779;52.264;6.154;2022-12-10T03:41:00;82.35;;;38.28;;
47021;SDS011;32779;52.264;6.154;2022-12-10T03:43:25;74.05;;;37.85;;
47021;SDS011;32779;52.264;6.154;2022-12-10T03:45:51;79.60;;;36.25;;
47021;SDS011;32779;52.264;6.154;2022-12-10T03:48:16;76.82;;;36.65;;
47021;SDS011;32779;52.264;6.154;2022-12-10T03:50:42;80.20;;;37.83;;
47021;SDS011;32779;52.264;6.154;2022-12-10T03:53:08;79.75;;;36.03;;
47021;SDS011;32779;52.264;6.154;2022-12-10T03:55:33;80.88;;;37.47;;
47021;SDS011;32779;52.264;6.154;2022-12-10T03:57:59;88.20;;;40.38;;
47021;SDS011;32779;52.264;6.154;2022-12-10T04:00:24;83.28;;;37.92;;
47021;SDS011;32779;52.264;6.154;2022-12-10T04:02:50;79.05;;;37.00;;
47021;SDS011;32779;52.264;6.154;2022-12-10T04:05:16;77.13;;;36.92;;
47021;SDS011;32779;52.264;6.154;2022-12-10T04:07:41;85.53;;;36.83;;
47021;SDS011;32779;52.264;6.154;2022-12-10T04:10:07;79.18;;;36.35;;
47021;SDS011;32779;52.264;6.154;2022-12-10T04:12:33;82.10;;;36.25;;
47021;SDS011;32779;52.264;6.154;2022-12-10T04:14:59;82.95;;;38.53;;
47021;SDS011;32779;52.264;6.154;2022-12-10T04:17:43;84.78;;;38.40;;
47021;SDS011;32779;52.264;6.154;2022-12-10T04:20:08;87.68;;;36.83;;
47021;SDS011;32779;52.264;6.154;2022-12-10T04:22:54;85.72;;;38.50;;
47021;SDS011;32779;52.264;6.154;2022-12-10T04:25:38;75.43;;;36.58;;
47021;SDS011;32779;52.264;6.154;2022-12-10T04:28:22;82.75;;;36.35;;
47021;SDS011;32779;52.264;6.154;2022-12-10T04:30:48;79.15;;;36.47;;
47021;SDS011;32779;52.264;6.154;2022-12-10T04:33:13;78.20;;;36.35;;
47021;SDS011;32779;52.264;6.154;2022-12-10T04:35:39;79.10;;;36.50;;
47021;SDS011;32779;52.264;6.154;2022-12-10T04:38:04;79.63;;;37.10;;
47021;SDS011;32779;52.264;6.154;2022-12-10T04:40:30;76.25;;;36.65;;
47021;SDS011;32779;52.264;6.154;2022-12-10T04:42:55;80.55;;;37.63;;
47021;SDS011;32779;52.264;6.154;2022-12-10T04:45:21;76.95;;;35.95;;
47021;SDS011;32779;52.264;6.154;2022-12-10T04:47:46;74.27;;;36.97;;
47021;SDS011;32779;52.264;6.154;2022-12-10T04:50:12;78.75;;;38.53;;
47021;SDS011;32779;52.264;6.154;2022-12-10T04:52:38;74.03;;;35.55;;
47021;SDS011;32779;52.264;6.154;2022-12-10T04:55:03;75.45;;;37.30;;
47021;SDS011;32779;52.264;6.154;2022-12-10T04:57:29;78.55;;;38.20;;
47021;SDS011;32779;52.264;6.154;2022-12-10T04:59:55;80.88;;;36.42;;
47021;SDS011;32779;52.264;6.154;2022-12-10T05:02:20;82.13;;;36.45;;
47021;SDS011;32779;52.264;6.154;2022-12-10T05:04:47;79.60;;;35.83;;
47021;SDS011;32779;52.264;6.154;2022-12-10T05:07:14;85.22;;;36.88;;
47021;SDS011;32779;52.264;6.154;2022-12-10T05:09:39;83.43;;;36.80;;
47021;SDS011;32779;52.264;6.154;2022-12-10T05:12:05;82.82;;;37.30;;
47021;SDS011;32779;52.264;6.154;2022-12-10T05:14:31;85.38;;;37.60;;
47021;SDS011;32779;52.264;6.154;2022-12-10T05:16:57;87.88;;;37.80;;
47021;SDS011;32779;52.264;6.154;2022-12-10T05:19:23;81.05;;;37.92;;
47021;SDS011;32779;52.264;6.154;2022-12-10T05:21:51;79.13;;;37.00;;
47021;SDS011;32779;52.264;6.154;2022-12-10T05:24:38;80.53;;;36.17;;
47021;SDS011;32779;52.264;6.154;2022-12-10T05:27:04;83.00;;;37.75;;
47021;SDS011;32779;52.264;6.154;2022-12-10T05:31:57;84.28;;;37.40;;
47021;SDS011;32779;52.264;6.154;2022-12-10T05:34:22;85.20;;;40.25;;
47021;SDS011;32779;52.264;6.154;2022-12-10T05:36:48;85.30;;;39.95;;
47021;SDS011;32779;52.264;6.154;2022-12-10T05:39:14;87.20;;;40.15;;
47021;SDS011;32779;52.264;6.154;2022-12-10T05:41:40;79.82;;;37.13;;
47021;SDS011;32779;52.264;6.154;2022-12-10T05:44:06;86.82;;;38.95;;
47021;SDS011;32779;52.264;6.154;2022-12-10T05:46:33;84.43;;;38.13;;
47021;SDS011;32779;52.264;6.154;2022-12-10T05:49:01;83.63;;;39.08;;
47021;SDS011;32779;52.264;6.154;2022-12-10T05:51:31;90.07;;;39.75;;
47021;SDS011;32779;52.264;6.154;2022-12-10T05:53:58;88.32;;;39.97;;
47021;SDS011;32779;52.264;6.154;2022-12-10T05:56:26;86.40;;;38.03;;
47021;SDS011;32779;52.264;6.154;2022-12-10T05:58:53;88.35;;;40.17;;
47021;SDS011;32779;52.264;6.154;2022-12-10T06:01:24;87.10;;;38.58;;
47021;SDS011;32779;52.264;6.154;2022-12-10T06:03:51;86.97;;;38.45;;
47021;SDS011;32779;52.264;6.154;2022-12-10T06:06:21;84.65;;;38.40;;
47021;SDS011;32779;52.264;6.154;2022-12-10T06:08:47;86.22;;;39.13;;
47021;SDS011;32779;52.264;6.154;2022-12-10T06:11:13;79.28;;;38.13;;
47021;SDS011;32779;52.264;6.154;2022-12-10T06:13:39;88.13;;;38.70;;
47021;SDS011;32779;52.264;6.154;2022-12-10T06:16:05;82.00;;;37.90;;
47021;SDS011;32779;52.264;6.154;2022-12-10T06:18:32;86.57;;;39.55;;
47021;SDS011;32779;52.264;6.154;2022-12-10T06:20:57;93.82;;;42.47;;
47021;SDS011;32779;52.264;6.154;2022-12-10T06:23:23;87.78;;;39.33;;
47021;SDS011;32779;52.264;6.154;2022-12-10T06:25:49;91.15;;;41.10;;
47021;SDS011;32779;52.264;6.154;2022-12-10T06:28:14;90.53;;;39.72;;
47021;SDS011;32779;52.264;6.154;2022-12-10T06:30:40;91.43;;;40.80;;
47021;SDS011;32779;52.264;6.154;2022-12-10T06:33:06;89.03;;;40.90;;
47021;SDS011;32779;52.264;6.154;2022-12-10T06:35:31;98.93;;;41.22;;
47021;SDS011;32779;52.264;6.154;2022-12-10T06:37:57;96.38;;;40.80;;
47021;SDS011;32779;52.264;6.154;2022-12-10T06:40:23;89.50;;;40.45;;
47021;SDS011;32779;52.264;6.154;2022-12-10T06:42:50;105.13;;;41.92;;
47021;SDS011;32779;52.264;6.154;2022-12-10T06:45:17;106.30;;;42.67;;
47021;SDS011;32779;52.264;6.154;2022-12-10T06:47:43;106.13;;;43.28;;
47021;SDS011;32779;52.264;6.154;2022-12-10T06:50:09;111.38;;;44.58;;
47021;SDS011;32779;52.264;6.154;2022-12-10T06:52:34;109.53;;;42.78;;
47021;SDS011;32779;52.264;6.154;2022-12-10T06:55:00;115.93;;;45.85;;
47021;SDS011;32779;52.264;6.154;2022-12-10T06:57:26;104.18;;;43.58;;
47021;SDS011;32779;52.264;6.154;2022-12-10T06:59:51;132.45;;;46.88;;
47021;SDS011;32779;52.264;6.154;2022-12-10T07:02:17;115.70;;;46.05;;
47021;SDS011;32779;52.264;6.154;2022-12-10T07:04:42;127.97;;;46.15;;
47021;SDS011;32779;52.264;6.154;2022-12-10T07:07:08;237.40;;;110.35;;
47021;SDS011;32779;52.264;6.154;2022-12-10T07:09:34;151.27;;;62.10;;
47021;SDS011;32779;52.264;6.154;2022-12-10T07:11:59;133.88;;;52.63;;
47021;SDS011;32779;52.264;6.154;2022-12-10T07:14:25;167.35;;;69.50;;
47021;SDS011;32779;52.264;6.154;2022-12-10T07:16:51;133.70;;;50.45;;
47021;SDS011;32779;52.264;6.154;2022-12-10T07:19:17;133.00;;;51.97;;
47021;SDS011;32779;52.264;6.154;2022-12-10T07:21:42;140.38;;;53.85;;
47021;SDS011;32779;52.264;6.154;2022-12-10T07:24:13;122.10;;;48.42;;
47021;SDS011;32779;52.264;6.154;2022-12-10T07:26:41;118.28;;;48.60;;
47021;SDS011;32779;52.264;6.154;2022-12-10T07:29:09;147.18;;;56.50;;
47021;SDS011;32779;52.264;6.154;2022-12-10T07:31:38;159.05;;;62.40;;
47021;SDS011;32779;52.264;6.154;2022-12-10T07:34:04;132.73;;;53.85;;
47021;SDS011;32779;52.264;6.154;2022-12-10T07:36:30;131.80;;;54.28;;
47021;SDS011;32779;52.264;6.154;2022-12-10T07:38:56;144.20;;;58.72;;
47021;SDS011;32779;52.264;6.154;2022-12-10T07:41:22;122.07;;;48.45;;
47021;SDS011;32779;52.264;6.154;2022-12-10T07:43:48;132.30;;;54.38;;
47021;SDS011;32779;52.264;6.154;2022-12-10T07:49:09;129.50;;;50.25;;
47021;SDS011;32779;52.264;6.154;2022-12-10T07:51:34;125.25;;;53.38;;
47021;SDS011;32779;52.264;6.154;2022-12-10T07:56:26;136.77;;;49.95;;
47021;SDS011;32779;52.264;6.154;2022-12-10T07:58:52;125.10;;;48.80;;
47021;SDS011;32779;52.264;6.154;2022-12-10T08:01:20;125.10;;;46.80;;
47021;SDS011;32779;52.264;6.154;2022-12-10T08:03:49;134.18;;;51.50;;
47021;SDS011;32779;52.264;6.154;2022-12-10T08:06:16;133.07;;;51.13;;
47021;SDS011;32779;52.264;6.154;2022-12-10T08:08:43;131.52;;;49.08;;
47021;SDS011;32779;52.264;6.154;2022-12-10T08:11:10;129.90;;;47.95;;
47021;SDS011;32779;52.264;6.154;2022-12-10T08:13:37;134.43;;;50.60;;
47021;SDS011;32779;52.264;6.154;2022-12-10T08:16:03;206.40;;;85.80;;
47021;SDS011;32779;52.264;6.154;2022-12-10T08:18:30;151.68;;;59.03;;
47021;SDS011;32779;52.264;6.154;2022-12-10T08:23:23;129.57;;;47.75;;
47021;SDS011;32779;52.264;6.154;2022-12-10T08:25:49;128.00;;;47.08;;
47021;SDS011;32779;52.264;6.154;2022-12-10T08:28:14;145.48;;;50.55;;
47021;SDS011;32779;52.264;6.154;2022-12-10T08:30:44;120.88;;;47.35;;
47021;SDS011;32779;52.264;6.154;2022-12-10T08:33:14;131.65;;;48.83;;
47021;SDS011;32779;52.264;6.154;2022-12-10T08:38:05;119.28;;;45.33;;
47021;SDS011;32779;52.264;6.154;2022-12-10T08:40:31;126.45;;;47.42;;
47021;SDS011;32779;52.264;6.154;2022-12-10T08:42:57;139.25;;;49.50;;
47021;SDS011;32779;52.264;6.154;2022-12-10T08:45:22;131.35;;;48.65;;
47021;SDS011;32779;52.264;6.154;2022-12-10T08:47:48;130.05;;;49.40;;
47021;SDS011;32779;52.264;6.154;2022-12-10T08:50:14;131.90;;;47.80;;
47021;SDS011;32779;52.264;6.154;2022-12-10T08:52:39;130.98;;;49.60;;
47021;SDS011;32779;52.264;6.154;2022-12-10T08:55:06;129.82;;;46.67;;
47021;SDS011;32779;52.264;6.154;2022-12-10T08:57:32;136.18;;;47.83;;
47021;SDS011;32779;52.264;6.154;2022-12-10T08:59:57;143.43;;;49.35;;
47021;SDS011;32779;52.264;6.154;2022-12-10T09:02:23;310.95;;;126.63;;
47021;SDS011;32779;52.264;6.154;2022-12-10T09:04:49;168.18;;;64.07;;
47021;SDS011;32779;52.264;6.154;2022-12-10T09:07:15;134.15;;;51.00;;
47021;SDS011;32779;52.264;6.154;2022-12-10T09:09:41;136.80;;;47.90;;
47021;SDS011;32779;52.264;6.154;2022-12-10T09:12:06;130.50;;;49.88;;
47021;SDS011;32779;52.264;6.154;2022-12-10T09:14:32;132.30;;;49.10;;
47021;SDS011;32779;52.264;6.154;2022-12-10T09:16:57;131.45;;;48.88;;
47021;SDS011;32779;52.264;6.154;2022-12-10T09:19:23;143.10;;;51.63;;
47021;SDS011;32779;52.264;6.154;2022-12-10T09:21:49;142.68;;;51.35;;
47021;SDS011;32779;52.264;6.154;2022-12-10T09:24:14;142.20;;;49.10;;
47021;SDS011;32779;52.264;6.154;2022-12-10T09:26:40;135.23;;;50.20;;
47021;SDS011;32779;52.264;6.154;2022-12-10T09:29:05;137.88;;;47.85;;
47021;SDS011;32779;52.264;6.154;2022-12-10T09:31:31;140.63;;;49.60;;
47021;SDS011;32779;52.264;6.154;2022-12-10T09:33:57;142.88;;;51.05;;
47021;SDS011;32779;52.264;6.154;2022-12-10T09:36:22;132.48;;;48.15;;
47021;SDS011;32779;52.264;6.154;2022-12-10T09:38:48;132.77;;;50.63;;
47021;SDS011;32779;52.264;6.154;2022-12-10T09:43:49;127.20;;;47.05;;
47021;SDS011;32779;52.264;6.154;2022-12-10T09:48:55;126.73;;;44.57;;
47021;SDS011;32779;52.264;6.154;2022-12-10T09:51:25;131.50;;;46.25;;
47021;SDS011;32779;52.264;6.154;2022-12-10T09:53:57;131.35;;;46.60;;
47021;SDS011;32779;52.264;6.154;2022-12-10T09:56:33;116.00;;;45.58;;
47021;SDS011;32779;52.264;6.154;2022-12-10T09:59:09;118.05;;;46.35;;
47021;SDS011;32779;52.264;6.154;2022-12-10T10:01:45;121.97;;;47.92;;
47021;SDS011;32779;52.264;6.154;2022-12-10T10:04:14;193.45;;;71.95;;
47021;SDS011;32779;52.264;6.154;2022-12-10T10:06:40;184.43;;;70.72;;
47021;SDS011;32779;52.264;6.154;2022-12-10T10:09:06;134.63;;;48.67;;
47021;SDS011;32779;52.264;6.154;2022-12-10T10:11:36;123.65;;;45.47;;
47021;SDS011;32779;52.264;6.154;2022-12-10T10:14:22;122.32;;;46.47;;
47021;SDS011;32779;52.264;6.154;2022-12-10T10:16:53;114.75;;;45.08;;
47021;SDS011;32779;52.264;6.154;2022-12-10T10:19:25;123.85;;;45.00;;
47021;SDS011;32779;52.264;6.154;2022-12-10T10:21:59;121.03;;;43.65;;
47021;SDS011;32779;52.264;6.154;2022-12-10T10:24:27;123.05;;;44.42;;
47021;SDS011;32779;52.264;6.154;2022-12-10T10:27:10;115.53;;;45.15;;
47021;SDS011;32779;52.264;6.154;2022-12-10T10:29:43;110.75;;;42.15;;
47021;SDS011;32779;52.264;6.154;2022-12-10T10:32:15;121.28;;;44.03;;
47021;SDS011;32779;52.264;6.154;2022-12-10T10:34:52;123.53;;;43.33;;
47021;SDS011;32779;52.264;6.154;2022-12-10T10:37:29;116.65;;;44.70;;
47021;SDS011;32779;52.264;6.154;2022-12-10T10:39:58;118.05;;;43.92;;
47021;SDS011;32779;52.264;6.154;2022-12-10T10:44:52;129.70;;;45.05;;
47021;SDS011;32779;52.264;6.154;2022-12-10T10:47:28;122.57;;;46.40;;
47021;SDS011;32779;52.264;6.154;2022-12-10T10:49:55;118.05;;;44.45;;
47021;SDS011;32779;52.264;6.154;2022-12-10T10:52:21;128.45;;;44.05;;
47021;SDS011;32779;52.264;6.154;2022-12-10T10:54:47;121.95;;;45.45;;
47021;SDS011;32779;52.264;6.154;2022-12-10T10:57:15;114.55;;;44.47;;
47021;SDS011;32779;52.264;6.154;2022-12-10T10:59:52;120.20;;;44.92;;
47021;SDS011;32779;52.264;6.154;2022-12-10T11:02:33;127.80;;;45.53;;
47021;SDS011;32779;52.264;6.154;2022-12-10T11:05:05;126.90;;;46.33;;
47021;SDS011;32779;52.264;6.154;2022-12-10T11:07:34;125.43;;;45.72;;
47021;SDS011;32779;52.264;6.154;2022-12-10T11:10:03;128.43;;;44.47;;
47021;SDS011;32779;52.264;6.154;2022-12-10T11:12:44;113.60;;;42.40;;
47021;SDS011;32779;52.264;6.154;2022-12-10T11:17:47;114.28;;;43.55;;
47021;SDS011;32779;52.264;6.154;2022-12-10T11:22:50;129.00;;;45.65;;
47021;SDS011;32779;52.264;6.154;2022-12-10T11:25:15;113.07;;;42.42;;
47021;SDS011;32779;52.264;6.154;2022-12-10T11:30:33;106.68;;;39.28;;
47021;SDS011;32779;52.264;6.154;2022-12-10T11:33:14;113.22;;;43.25;;
47021;SDS011;32779;52.264;6.154;2022-12-10T11:41:41;103.13;;;40.55;;
47021;SDS011;32779;52.264;6.154;2022-12-10T11:47:30;95.38;;;36.50;;
47021;SDS011;32779;52.264;6.154;2022-12-10T11:50:02;95.70;;;37.33;;
47021;SDS011;32779;52.264;6.154;2022-12-10T11:55:33;85.95;;;34.97;;
47021;SDS011;32779;52.264;6.154;2022-12-10T12:01:12;97.03;;;34.75;;
47021;SDS011;32779;52.264;6.154;2022-12-10T12:04:03;85.93;;;34.78;;
47021;SDS011;32779;52.264;6.154;2022-12-10T12:06:54;93.72;;;35.25;;
47021;SDS011;32779;52.264;6.154;2022-12-10T12:15:28;90.43;;;35.67;;
47021;SDS011;32779;52.264;6.154;2022-12-10T12:18:20;90.22;;;35.72;;
47021;SDS011;32779;52.264;6.154;2022-12-10T12:20:57;93.22;;;37.60;;
47021;SDS011;32779;52.264;6.154;2022-12-10T12:23:30;88.05;;;35.58;;
47021;SDS011;32779;52.264;6.154;2022-12-10T12:26:08;88.30;;;33.75;;
47021;SDS011;32779;52.264;6.154;2022-12-10T12:28:43;88.15;;;34.95;;
47021;SDS011;32779;52.264;6.154;2022-12-10T12:31:20;82.95;;;32.63;;
47021;SDS011;32779;52.264;6.154;2022-12-10T12:34:01;86.47;;;34.85;;
47021;SDS011;32779;52.264;6.154;2022-12-10T12:36:48;88.17;;;33.87;;
47021;SDS011;32779;52.264;6.154;2022-12-10T12:39:33;83.72;;;33.35;;
47021;SDS011;32779;52.264;6.154;2022-12-10T12:50:36;91.20;;;33.35;;
47021;SDS011;32779;52.264;6.154;2022-12-10T12:53:14;81.10;;;32.83;;
47021;SDS011;32779;52.264;6.154;2022-12-10T13:00:50;80.72;;;33.05;;
47021;SDS011;32779;52.264;6.154;2022-12-10T13:03:27;88.18;;;32.60;;
47021;SDS011;32779;52.264;6.154;2022-12-10T13:05:54;83.82;;;32.53;;
47021;SDS011;32779;52.264;6.154;2022-12-10T13:13:40;87.32;;;33.47;;
47021;SDS011;32779;52.264;6.154;2022-12-10T13:22:02;96.05;;;36.53;;
47021;SDS011;32779;52.264;6.154;2022-12-10T13:30:00;95.47;;;34.55;;
47021;SDS011;32779;52.264;6.154;2022-12-10T13:32:46;91.18;;;33.97;;
47021;SDS011;32779;52.264;6.154;2022-12-10T13:35:22;93.50;;;34.95;;
47021;SDS011;32779;52.264;6.154;2022-12-10T13:49:22;81.35;;;30.85;;
47021;SDS011;32779;52.264;6.154;2022-12-10T13:51:57;82.13;;;31.02;;
47021;SDS011;32779;52.264;6.154;2022-12-10T14:00:00;79.43;;;32.08;;
47021;SDS011;32779;52.264;6.154;2022-12-10T14:07:38;72.88;;;29.98;;
47021;SDS011;32779;52.264;6.154;2022-12-10T14:10:08;72.80;;;28.98;;
47021;SDS011;32779;52.264;6.154;2022-12-10T14:12:40;79.10;;;30.38;;
47021;SDS011;32779;52.264;6.154;2022-12-10T14:15:08;78.50;;;29.25;;
47021;SDS011;32779;52.264;6.154;2022-12-10T14:17:43;73.65;;;29.55;;
47021;SDS011;32779;52.264;6.154;2022-12-10T14:20:16;77.40;;;29.58;;
47021;SDS011;32779;52.264;6.154;2022-12-10T14:22:46;84.60;;;30.80;;
47021;SDS011;32779;52.264;6.154;2022-12-10T14:25:14;71.28;;;29.63;;
47021;SDS011;32779;52.264;6.154;2022-12-10T14:27:48;83.20;;;29.85;;
47021;SDS011;32779;52.264;6.154;2022-12-10T14:30:17;76.55;;;30.65;;
47021;SDS011;32779;52.264;6.154;2022-12-10T14:32:43;77.47;;;30.15;;
47021;SDS011;32779;52.264;6.154;2022-12-10T14:35:14;76.00;;;31.35;;
47021;SDS011;32779;52.264;6.154;2022-12-10T14:37:46;75.00;;;29.58;;
47021;SDS011;32779;52.264;6.154;2022-12-10T14:40:18;73.00;;;29.65;;
47021;SDS011;32779;52.264;6.154;2022-12-10T14:42:54;72.35;;;28.67;;
47021;SDS011;32779;52.264;6.154;2022-12-10T14:45:54;77.55;;;31.40;;
47021;SDS011;32779;52.264;6.154;2022-12-10T14:48:25;75.80;;;28.58;;
47021;SDS011;32779;52.264;6.154;2022-12-10T14:50:50;84.80;;;32.70;;
47021;SDS011;32779;52.264;6.154;2022-12-10T14:55:44;73.25;;;28.15;;
47021;SDS011;32779;52.264;6.154;2022-12-10T14:58:14;67.10;;;27.85;;
47021;SDS011;32779;52.264;6.154;2022-12-10T15:00:46;78.13;;;28.83;;
47021;SDS011;32779;52.264;6.154;2022-12-10T15:03:17;70.63;;;28.98;;
47021;SDS011;32779;52.264;6.154;2022-12-10T15:05:54;67.10;;;26.55;;
47021;SDS011;32779;52.264;6.154;2022-12-10T15:08:26;67.95;;;27.38;;
47021;SDS011;32779;52.264;6.154;2022-12-10T15:10:56;68.78;;;28.40;;
47021;SDS011;32779;52.264;6.154;2022-12-10T15:13:47;79.38;;;28.90;;
47021;SDS011;32779;52.264;6.154;2022-12-10T15:16:20;78.05;;;28.35;;
47021;SDS011;32779;52.264;6.154;2022-12-10T15:18:52;56.85;;;25.85;;
47021;SDS011;32779;52.264;6.154;2022-12-10T15:21:20;55.28;;;24.98;;
47021;SDS011;32779;52.264;6.154;2022-12-10T15:23:47;60.90;;;25.95;;
47021;SDS011;32779;52.264;6.154;2022-12-10T15:28:40;68.82;;;25.90;;
47021;SDS011;32779;52.264;6.154;2022-12-10T15:33:37;68.20;;;28.33;;
47021;SDS011;32779;52.264;6.154;2022-12-10T15:36:15;66.75;;;27.23;;
47021;SDS011;32779;52.264;6.154;2022-12-10T15:38:44;66.72;;;26.55;;
47021;SDS011;32779;52.264;6.154;2022-12-10T15:41:21;71.13;;;30.02;;
47021;SDS011;32779;52.264;6.154;2022-12-10T15:47:23;69.95;;;28.80;;
47021;SDS011;32779;52.264;6.154;2022-12-10T15:49:51;73.35;;;28.70;;
47021;SDS011;32779;52.264;6.154;2022-12-10T15:54:48;64.88;;;27.77;;
47021;SDS011;32779;52.264;6.154;2022-12-10T15:57:22;65.68;;;26.05;;
47021;SDS011;32779;52.264;6.154;2022-12-10T15:59:48;66.25;;;28.00;;
47021;SDS011;32779;52.264;6.154;2022-12-10T16:05:03;63.40;;;26.98;;
47021;SDS011;32779;52.264;6.154;2022-12-10T16:07:35;69.45;;;28.33;;
47021;SDS011;32779;52.264;6.154;2022-12-10T16:10:01;77.95;;;29.50;;
47021;SDS011;32779;52.264;6.154;2022-12-10T16:12:28;66.40;;;28.35;;
47021;SDS011;32779;52.264;6.154;2022-12-10T16:14:54;69.68;;;28.50;;
47021;SDS011;32779;52.264;6.154;2022-12-10T16:17:24;63.92;;;27.52;;
47021;SDS011;32779;52.264;6.154;2022-12-10T16:22:45;63.72;;;27.95;;
47021;SDS011;32779;52.264;6.154;2022-12-10T16:27:37;67.55;;;29.45;;
47021;SDS011;32779;52.264;6.154;2022-12-10T16:33:09;76.65;;;30.48;;
47021;SDS011;32779;52.264;6.154;2022-12-10T16:35:34;80.55;;;32.72;;
47021;SDS011;32779;52.264;6.154;2022-12-10T16:38:00;87.50;;;33.60;;
47021;SDS011;32779;52.264;6.154;2022-12-10T16:40:26;83.07;;;35.28;;
47021;SDS011;32779;52.264;6.154;2022-12-10T16:42:53;82.20;;;34.33;;
47021;SDS011;32779;52.264;6.154;2022-12-10T16:45:37;76.38;;;30.83;;
47021;SDS011;32779;52.264;6.154;2022-12-10T16:48:04;79.00;;;33.95;;
47021;SDS011;32779;52.264;6.154;2022-12-10T16:50:30;82.78;;;34.65;;
47021;SDS011;32779;52.264;6.154;2022-12-10T16:52:56;73.88;;;34.42;;
47021;SDS011;32779;52.264;6.154;2022-12-10T16:55:24;88.65;;;38.72;;
47021;SDS011;32779;52.264;6.154;2022-12-10T16:57:51;89.60;;;39.28;;
47021;SDS011;32779;52.264;6.154;2022-12-10T17:00:18;76.13;;;31.48;;
47021;SDS011;32779;52.264;6.154;2022-12-10T17:02:47;71.10;;;29.42;;
47021;SDS011;32779;52.264;6.154;2022-12-10T17:05:15;83.03;;;32.95;;
47021;SDS011;32779;52.264;6.154;2022-12-10T17:07:43;71.35;;;29.70;;
47021;SDS011;32779;52.264;6.154;2022-12-10T17:10:12;82.28;;;39.80;;
47021;SDS011;32779;52.264;6.154;2022-12-10T17:12:39;57.65;;;25.08;;